Time;durP1;ratioP1;P1;durP2;ratioP2;P2;SDS_P1;SDS_P2;PMS_P1;PMS_P2;Temp;Humidity;BMP_temperature;BMP_pressure;BME280_temperature;BME280_humidity;BME280_pressure;Samples;Min_cycle;Max_cycle;Signal;HPM_P1;HPM_P2
2022/06/30 00:02:18;;;;;;;6.60;2.80;;;29.10;90.20;;;;;;1862684;77;21171;-82
2022/06/30 00:04:49;;;;;;;7.37;2.90;;;29.10;90.00;;;;;;1868880;76;21163;-81
2022/06/30 00:07:20;;;;;;;6.62;2.55;;;29.20;90.00;;;;;;1856958;76;21148;-82
2022/06/30 00:09:51;;;;;;;6.12;2.65;;;29.20;90.10;;;;;;1869240;77;21112;-83
2022/06/30 00:12:22;;;;;;;7.12;3.50;;;29.30;90.10;;;;;;1855013;77;22117;-82
2022/06/30 00:14:53;;;;;;;7.40;3.27;;;29.30;90.30;;;;;;1837863;78;21115;-84
2022/06/30 00:17:24;;;;;;;6.65;3.42;;;29.40;90.30;;;;;;1842998;76;21648;-82
2022/06/30 00:19:55;;;;;;;6.30;3.25;;;29.30;90.20;;;;;;1852280;77;21130;-82
2022/06/30 00:22:26;;;;;;;7.85;3.40;;;29.40;90.40;;;;;;1867019;76;21132;-81
2022/06/30 00:24:58;;;;;;;7.75;3.33;;;29.30;90.40;;;;;;1865303;76;21178;-83
2022/06/30 00:27:29;;;;;;;6.92;3.00;;;29.40;90.40;;;;;;1853035;76;21170;-81
2022/06/30 00:30:00;;;;;;;5.12;2.80;;;29.40;90.20;;;;;;1856342;77;21140;-82
2022/06/30 00:32:31;;;;;;;5.97;3.05;;;29.30;90.10;;;;;;1852176;76;21211;-81
2022/06/30 00:35:03;;;;;;;6.10;2.70;;;29.40;90.30;;;;;;1868974;76;21096;-81
2022/06/30 00:37:34;;;;;;;5.50;2.67;;;29.40;90.30;;;;;;1865081;76;21175;-82
2022/06/30 00:40:05;;;;;;;5.30;2.50;;;29.50;90.10;;;;;;1862195;77;21133;-83
2022/06/30 00:42:36;;;;;;;7.05;2.70;;;29.60;90.00;;;;;;1868406;76;21209;-82
2022/06/30 00:45:08;;;;;;;5.60;2.75;;;29.60;89.80;;;;;;1876537;76;21098;-82
2022/06/30 00:47:40;;;;;;;5.30;3.00;;;29.60;89.60;;;;;;1875478;76;21119;-83
2022/06/30 00:50:10;;;;;;;5.55;3.08;;;29.70;89.20;;;;;;1877837;76;21135;-82
2022/06/30 00:52:43;;;;;;;6.67;2.62;;;29.80;89.40;;;;;;1879620;75;21253;-82
2022/06/30 00:55:16;;;;;;;6.65;3.15;;;29.80;88.80;;;;;;1870782;75;21115;-83
2022/06/30 00:57:47;;;;;;;6.47;2.77;;;29.80;88.70;;;;;;1874883;76;21084;-83
2022/06/30 01:00:18;;;;;;;13.08;4.28;;;29.90;89.40;;;;;;1879856;75;22210;-82
2022/06/30 01:02:51;;;;;;;5.03;3.33;;;29.90;89.00;;;;;;1878060;75;21090;-82
2022/06/30 01:05:23;;;;;;;6.53;3.25;;;30.00;90.10;;;;;;1827548;78;21249;-83
2022/06/30 01:07:55;;;;;;;9.30;3.50;;;30.00;88.80;;;;;;1871546;75;21084;-83
2022/06/30 01:12:59;;;;;;;5.00;2.50;;;30.10;88.20;;;;;;1864040;75;21193;-82
2022/06/30 01:15:29;;;;;;;6.03;2.60;;;30.10;87.40;;;;;;1872282;76;21550;-82
2022/06/30 01:18:00;;;;;;;3.98;2.37;;;30.30;87.50;;;;;;1869491;76;21773;-81
2022/06/30 01:20:33;;;;;;;6.40;2.60;;;30.30;87.30;;;;;;1850628;75;21196;-83
2022/06/30 01:23:05;;;;;;;5.50;2.62;;;30.40;87.10;;;;;;1863818;76;21111;-82
2022/06/30 01:25:36;;;;;;;6.47;2.90;;;30.40;86.90;;;;;;1860006;75;21717;-83
2022/06/30 01:28:07;;;;;;;6.83;2.80;;;30.50;86.30;;;;;;1834641;76;21091;-83
2022/06/30 01:30:38;;;;;;;5.92;2.33;;;30.50;86.30;;;;;;1829380;77;21148;-83
2022/06/30 01:33:09;;;;;;;4.00;2.30;;;30.60;85.80;;;;;;1861542;75;21155;-82
2022/06/30 01:35:40;;;;;;;5.05;2.55;;;30.70;85.50;;;;;;1864129;75;21636;-83
2022/06/30 01:38:11;;;;;;;6.70;2.50;;;30.80;85.30;;;;;;1864305;75;22283;-83
2022/06/30 01:40:42;;;;;;;6.42;2.50;;;30.90;85.50;;;;;;1864344;76;21119;-83
2022/06/30 01:43:13;;;;;;;3.55;2.10;;;30.90;84.80;;;;;;1855469;75;21209;-82
2022/06/30 01:45:44;;;;;;;4.25;2.25;;;30.90;85.10;;;;;;1836114;77;21097;-83
2022/06/30 01:48:15;;;;;;;6.55;2.50;;;31.00;84.30;;;;;;1843152;77;21639;-82
2022/06/30 01:50:47;;;;;;;5.47;2.33;;;31.10;84.50;;;;;;1833797;77;21153;-83
2022/06/30 01:53:18;;;;;;;4.00;2.27;;;31.20;83.70;;;;;;1851851;76;21134;-84
2022/06/30 01:55:49;;;;;;;2.90;1.90;;;31.20;83.40;;;;;;1841229;77;21132;-83
2022/06/30 01:58:20;;;;;;;4.78;2.00;;;31.20;83.80;;;;;;1846090;77;21136;-81
2022/06/30 02:00:50;;;;;;;5.67;2.20;;;31.20;83.00;;;;;;1847268;77;21171;-82
2022/06/30 02:03:21;;;;;;;6.80;2.52;;;31.20;83.30;;;;;;1833133;77;21171;-83
2022/06/30 02:05:53;;;;;;;4.67;2.02;;;31.20;83.20;;;;;;1841054;77;21092;-82
2022/06/30 02:08:23;;;;;;;7.70;1.92;;;31.30;82.70;;;;;;1840721;76;21491;-82
2022/06/30 02:10:54;;;;;;;4.35;1.90;;;31.50;82.80;;;;;;1846395;77;21142;-83
2022/06/30 02:13:25;;;;;;;7.20;2.10;;;31.60;81.60;;;;;;1832201;77;21114;-83
2022/06/30 02:15:56;;;;;;;3.45;1.85;;;31.80;81.10;;;;;;1811769;77;21592;-83
2022/06/30 02:18:27;;;;;;;4.17;1.90;;;31.90;80.70;;;;;;1827128;77;21210;-83
2022/06/30 02:20:58;;;;;;;6.08;2.02;;;31.90;80.70;;;;;;1808883;79;21148;-82
2022/06/30 02:23:29;;;;;;;6.03;2.10;;;32.00;80.90;;;;;;1808740;79;21136;-82
2022/06/30 02:26:00;;;;;;;4.15;2.20;;;31.90;79.80;;;;;;1809768;77;21159;-83
2022/06/30 02:28:31;;;;;;;5.17;2.05;;;31.90;80.60;;;;;;1867326;77;21061;-83
2022/06/30 02:31:02;;;;;;;6.92;1.90;;;31.90;80.00;;;;;;1857288;77;21148;-84
2022/06/30 02:33:33;;;;;;;4.22;2.12;;;31.90;79.70;;;;;;1868804;77;21592;-82
2022/06/30 02:36:04;;;;;;;4.45;2.05;;;31.90;80.40;;;;;;1869268;77;21138;-80
2022/06/30 02:38:36;;;;;;;5.20;2.25;;;31.90;80.40;;;;;;1851129;76;21198;-82
2022/06/30 02:41:08;;;;;;;3.52;1.90;;;31.80;80.40;;;;;;1868516;77;21120;-83
2022/06/30 02:43:38;;;;;;;3.58;2.00;;;31.90;80.40;;;;;;1868984;76;21104;-80
2022/06/30 02:46:09;;;;;;;3.80;2.10;;;31.90;80.50;;;;;;1875527;76;21084;-82
2022/06/30 02:48:41;;;;;;;3.10;1.95;;;31.90;79.50;;;;;;1875343;76;21194;-82
2022/06/30 02:51:11;;;;;;;3.33;1.55;;;31.90;79.80;;;;;;1875435;76;21131;-83
2022/06/30 02:53:42;;;;;;;4.47;1.90;;;32.00;78.80;;;;;;1875307;76;21139;-83
2022/06/30 02:56:16;;;;;;;2.12;1.32;;;31.90;78.90;;;;;;1876159;76;21060;-82
2022/06/30 02:58:49;;;;;;;4.72;1.25;;;31.80;78.60;;;;;;1876104;76;21221;-83
2022/06/30 03:01:20;;;;;;;5.83;1.65;;;31.70;79.20;;;;;;1852836;76;21864;-83
2022/06/30 03:03:51;;;;;;;5.00;1.75;;;31.80;80.20;;;;;;1875760;76;21161;-83
2022/06/30 03:06:23;;;;;;;5.95;2.05;;;31.80;79.30;;;;;;1875587;76;21925;-83
2022/06/30 03:08:55;;;;;;;4.40;1.98;;;31.80;79.00;;;;;;1877461;76;21151;-82
2022/06/30 03:11:26;;;;;;;5.47;1.72;;;31.90;79.60;;;;;;1876840;76;21159;-83
2022/06/30 03:13:59;;;;;;;5.00;1.80;;;31.90;80.00;;;;;;1872596;76;21092;-82
2022/06/30 03:16:30;;;;;;;7.12;2.00;;;31.90;79.80;;;;;;1878859;76;21111;-84
2022/06/30 03:19:01;;;;;;;4.30;1.60;;;32.00;79.00;;;;;;1881194;74;21057;-83
2022/06/30 03:21:32;;;;;;;3.12;1.75;;;32.00;78.60;;;;;;1880675;74;21229;-83
2022/06/30 03:24:03;;;;;;;3.65;1.50;;;32.10;78.60;;;;;;1880813;74;21084;-84
2022/06/30 03:26:36;;;;;;;3.08;1.65;;;32.00;78.60;;;;;;1881276;74;21056;-83
2022/06/30 03:29:07;;;;;;;3.25;1.40;;;32.00;78.90;;;;;;1881100;74;21142;-83
2022/06/30 03:31:38;;;;;;;5.28;1.77;;;32.00;78.20;;;;;;1880833;74;21092;-83
2022/06/30 03:34:09;;;;;;;4.25;1.57;;;32.10;79.30;;;;;;1878530;75;21116;-84
2022/06/30 03:36:40;;;;;;;4.83;1.60;;;32.10;78.60;;;;;;1852152;76;21147;-82
2022/06/30 03:39:11;;;;;;;5.03;1.65;;;32.10;78.90;;;;;;1875291;76;21237;-84
2022/06/30 03:41:46;;;;;;;3.92;1.82;;;32.10;78.60;;;;;;1874255;75;21200;-83
2022/06/30 03:44:16;;;;;;;3.95;1.90;;;32.20;78.80;;;;;;1876491;76;21175;-84
2022/06/30 03:46:48;;;;;;;5.85;1.75;;;32.10;78.70;;;;;;1858313;77;21164;-83
2022/06/30 03:49:21;;;;;;;3.45;1.72;;;32.20;78.50;;;;;;1868719;75;21686;-84
2022/06/30 03:51:52;;;;;;;5.17;1.40;;;32.20;78.70;;;;;;1856733;76;21132;-83
2022/06/30 03:54:25;;;;;;;3.20;2.10;;;32.30;78.40;;;;;;1857751;77;21172;-87
2022/06/30 03:56:56;;;;;;;3.95;1.75;;;32.30;77.90;;;;;;1858217;77;21135;-84
2022/06/30 03:59:38;;;;;;;4.87;1.30;;;32.30;77.20;;;;;;1826855;78;21132;-85
2022/06/30 04:02:10;;;;;;;2.98;1.77;;;32.50;76.20;;;;;;1838402;78;21175;-83
2022/06/30 04:04:41;;;;;;;2.95;1.45;;;32.60;76.10;;;;;;1845925;77;21112;-84
2022/06/30 04:07:12;;;;;;;4.33;1.60;;;32.70;76.30;;;;;;1869382;77;21190;-83
2022/06/30 04:09:44;;;;;;;3.92;1.45;;;32.80;76.00;;;;;;1857165;77;21160;-83
2022/06/30 04:12:15;;;;;;;3.05;1.65;;;32.90;76.50;;;;;;1869041;77;21085;-84
2022/06/30 04:14:46;;;;;;;4.45;2.40;;;33.10;75.80;;;;;;1857113;77;21237;-83
2022/06/30 04:17:17;;;;;;;4.15;2.05;;;33.20;75.00;;;;;;1868889;77;21382;-82
2022/06/30 04:19:48;;;;;;;4.47;2.12;;;33.20;74.50;;;;;;1853839;77;21261;-83
2022/06/30 04:22:19;;;;;;;3.37;1.87;;;33.20;75.00;;;;;;1855166;77;21089;-82
2022/06/30 04:24:50;;;;;;;2.92;1.80;;;33.30;75.30;;;;;;1858706;77;21170;-82
2022/06/30 04:27:21;;;;;;;3.35;1.80;;;33.40;73.60;;;;;;1867186;77;21197;-83
2022/06/30 04:29:52;;;;;;;5.58;1.90;;;33.40;73.30;;;;;;1852307;77;21871;-83
2022/06/30 04:34:56;;;;;;;3.72;1.82;;;33.40;74.10;;;;;;1849283;77;21163;-83
2022/06/30 04:37:27;;;;;;;5.03;2.10;;;33.60;74.00;;;;;;1851540;77;21131;-84
2022/06/30 04:42:30;;;;;;;3.95;1.55;;;33.80;72.70;;;;;;1849626;77;21155;-85
2022/06/30 04:45:01;;;;;;;2.85;1.60;;;33.80;72.70;;;;;;1855545;76;22417;-87
2022/06/30 04:47:32;;;;;;;4.72;1.70;;;33.80;73.00;;;;;;1875958;75;21234;-85
2022/06/30 04:50:04;;;;;;;3.22;1.72;;;33.80;72.60;;;;;;1875906;76;21103;-84
2022/06/30 04:52:36;;;;;;;4.35;1.60;;;33.80;72.00;;;;;;1876027;76;21607;-85
2022/06/30 04:55:07;;;;;;;3.55;1.40;;;33.80;72.70;;;;;;1875260;76;21634;-84
2022/06/30 04:57:38;;;;;;;3.60;2.08;;;33.80;73.50;;;;;;1875403;76;21088;-84
2022/06/30 05:00:10;;;;;;;3.40;1.60;;;33.90;72.20;;;;;;1853613;76;21178;-85
2022/06/30 05:02:41;;;;;;;2.77;1.65;;;34.00;71.10;;;;;;1874308;76;21131;-83
2022/06/30 05:05:12;;;;;;;6.60;1.82;;;34.10;70.40;;;;;;1875949;76;21230;-83
2022/06/30 05:07:44;;;;;;;4.12;1.75;;;34.20;70.60;;;;;;1876074;76;21120;-84
2022/06/30 05:10:15;;;;;;;2.83;1.60;;;34.30;70.60;;;;;;1875365;76;21068;-84
2022/06/30 05:12:47;;;;;;;3.08;1.60;;;34.30;70.30;;;;;;1875375;76;21268;-84
2022/06/30 05:15:18;;;;;;;4.50;2.08;;;34.40;68.80;;;;;;1875662;76;21154;-84
2022/06/30 05:17:49;;;;;;;2.90;1.90;;;34.40;69.10;;;;;;1875839;76;21673;-84
2022/06/30 05:20:20;;;;;;;2.42;1.50;;;34.40;70.00;;;;;;1875845;76;21634;-84
2022/06/30 05:22:51;;;;;;;2.67;1.30;;;34.50;70.00;;;;;;1875540;76;21634;-84
2022/06/30 05:27:54;;;;;;;3.55;2.12;;;34.70;69.50;;;;;;1873629;76;21146;-84
2022/06/30 05:30:26;;;;;;;3.27;1.12;;;34.70;68.90;;;;;;1864263;76;21128;-85
2022/06/30 05:32:57;;;;;;;4.22;1.70;;;34.80;68.30;;;;;;1863224;77;21140;-83
2022/06/30 05:35:28;;;;;;;5.40;1.80;;;34.80;68.90;;;;;;1863245;77;21249;-84
2022/06/30 05:37:58;;;;;;;7.67;2.00;;;34.90;67.60;;;;;;1868141;75;21174;-84
2022/06/30 05:40:36;;;;;;;3.98;1.40;;;34.70;68.10;;;;;;1877481;75;21233;-84
2022/06/30 05:43:15;;;;;;;2.87;1.50;;;34.60;68.30;;;;;;1846165;78;21167;-85
2022/06/30 05:45:47;;;;;;;2.80;1.52;;;34.50;69.30;;;;;;1854770;76;21725;-84
2022/06/30 05:48:19;;;;;;;3.12;1.52;;;34.40;69.30;;;;;;1870326;76;21108;-85
2022/06/30 05:50:50;;;;;;;4.05;1.60;;;34.40;69.30;;;;;;1876285;76;21190;-85
2022/06/30 05:53:21;;;;;;;3.22;1.75;;;34.20;69.60;;;;;;1869478;76;21252;-84
2022/06/30 05:55:52;;;;;;;3.95;1.50;;;34.20;69.90;;;;;;1884908;76;21166;-84
2022/06/30 05:58:24;;;;;;;3.47;1.30;;;34.20;70.20;;;;;;1873049;76;21068;-85
2022/06/30 06:00:54;;;;;;;3.00;1.80;;;34.10;70.10;;;;;;1881849;76;21113;-84
2022/06/30 06:03:26;;;;;;;3.45;1.55;;;34.10;70.40;;;;;;1873498;76;21164;-85
2022/06/30 06:05:56;;;;;;;6.45;1.85;;;34.00;71.20;;;;;;1885313;76;21127;-84
2022/06/30 06:08:27;;;;;;;3.70;1.30;;;34.00;71.30;;;;;;1873178;76;21752;-84
2022/06/30 06:10:59;;;;;;;5.85;2.12;;;33.90;71.00;;;;;;1885351;76;21546;-84
2022/06/30 06:13:30;;;;;;;6.97;2.40;;;33.90;71.30;;;;;;1873243;76;21734;-84
2022/06/30 06:16:01;;;;;;;3.67;1.80;;;34.00;71.40;;;;;;1888546;75;21673;-84
2022/06/30 06:18:32;;;;;;;4.92;1.67;;;33.90;71.50;;;;;;1876614;76;21636;-85
2022/06/30 06:21:03;;;;;;;5.00;2.87;;;33.80;71.40;;;;;;1876595;76;21189;-84
2022/06/30 06:23:35;;;;;;;5.65;2.85;;;33.80;72.20;;;;;;1873877;76;21122;-85
2022/06/30 06:26:06;;;;;;;3.47;2.12;;;33.80;72.30;;;;;;1876864;76;21083;-85
2022/06/30 06:31:10;;;;;;;3.47;1.60;;;33.80;71.90;;;;;;1874935;76;21252;-85
2022/06/30 06:33:43;;;;;;;5.20;2.50;;;33.90;71.50;;;;;;1876468;76;21076;-84
2022/06/30 06:36:15;;;;;;;6.35;3.27;;;34.00;71.60;;;;;;1874307;76;21131;-84
2022/06/30 06:38:46;;;;;;;4.33;1.80;;;34.00;72.10;;;;;;1885195;76;21123;-85
2022/06/30 06:41:20;;;;;;;5.08;2.22;;;34.10;71.30;;;;;;1873536;75;21163;-84
2022/06/30 06:43:51;;;;;;;4.03;2.00;;;34.10;71.00;;;;;;1885005;76;21136;-84
2022/06/30 06:46:26;;;;;;;6.22;2.22;;;34.10;70.50;;;;;;1873253;76;21139;-84
2022/06/30 06:49:02;;;;;;;3.92;1.65;;;34.20;70.40;;;;;;1871286;76;21619;-85
2022/06/30 06:51:32;;;;;;;4.75;1.92;;;34.30;70.50;;;;;;1869151;77;21140;-85
2022/06/30 06:54:03;;;;;;;7.00;1.77;;;34.20;70.20;;;;;;1869610;77;21088;-84
2022/06/30 06:56:34;;;;;;;3.67;2.33;;;34.20;69.90;;;;;;1858119;77;21600;-83
2022/06/30 06:59:06;;;;;;;6.22;2.42;;;34.20;70.40;;;;;;1866334;77;21631;-83
2022/06/30 07:01:37;;;;;;;3.37;1.52;;;34.20;69.90;;;;;;1858026;77;21238;-85
2022/06/30 07:04:08;;;;;;;2.75;1.57;;;34.20;70.10;;;;;;1870260;77;21630;-84
2022/06/30 07:06:39;;;;;;;3.65;1.62;;;34.30;71.30;;;;;;1851955;77;21591;-84
2022/06/30 07:09:12;;;;;;;3.05;2.00;;;34.30;70.00;;;;;;1851464;77;21125;-85
2022/06/30 07:11:45;;;;;;;4.28;1.60;;;34.40;70.20;;;;;;1852582;77;21231;-85
2022/06/30 07:14:16;;;;;;;3.33;1.52;;;34.30;69.90;;;;;;1820894;77;21086;-83
2022/06/30 07:16:48;;;;;;;3.95;1.75;;;34.40;68.80;;;;;;1853275;77;21610;-84
2022/06/30 07:19:19;;;;;;;4.33;1.52;;;34.30;69.40;;;;;;1857269;77;21179;-84
2022/06/30 07:21:53;;;;;;;4.25;1.87;;;34.20;69.70;;;;;;1865602;75;21147;-84
2022/06/30 07:24:24;;;;;;;4.08;1.60;;;34.20;70.00;;;;;;1852754;77;21583;-84
2022/06/30 07:26:55;;;;;;;2.70;1.60;;;34.20;69.90;;;;;;1852387;77;21166;-85
2022/06/30 07:29:26;;;;;;;4.97;1.80;;;34.20;69.50;;;;;;1847449;77;21104;-82
2022/06/30 07:31:57;;;;;;;3.47;2.08;;;34.10;69.90;;;;;;1832695;77;21088;-84
2022/06/30 07:34:39;;;;;;;3.50;1.70;;;34.10;70.00;;;;;;1844150;77;21167;-84
2022/06/30 07:37:08;;;;;;;4.33;1.92;;;34.10;69.70;;;;;;1847540;77;21602;-84
2022/06/30 07:39:44;;;;;;;2.45;1.47;;;34.10;69.50;;;;;;1833737;77;21560;-85
2022/06/30 07:42:15;;;;;;;4.17;1.42;;;34.10;70.40;;;;;;1844168;77;21177;-84
2022/06/30 07:44:46;;;;;;;4.40;1.70;;;34.20;70.40;;;;;;1830574;77;21180;-85
2022/06/30 07:47:17;;;;;;;4.90;1.82;;;34.20;70.30;;;;;;1841413;77;21084;-84
2022/06/30 07:49:48;;;;;;;3.08;1.50;;;34.20;69.80;;;;;;1848661;77;21111;-85
2022/06/30 07:52:19;;;;;;;2.72;1.50;;;34.20;69.80;;;;;;1832928;77;21089;-85
2022/06/30 07:54:52;;;;;;;4.17;1.70;;;34.10;69.70;;;;;;1842728;77;21214;-85
2022/06/30 07:57:23;;;;;;;4.47;1.60;;;34.10;70.20;;;;;;1833854;76;21168;-85
2022/06/30 07:59:56;;;;;;;2.77;1.65;;;34.10;70.00;;;;;;1841434;77;21230;-85
2022/06/30 08:02:27;;;;;;;3.50;1.95;;;34.10;70.00;;;;;;1837467;77;21193;-85
2022/06/30 08:04:58;;;;;;;4.20;1.85;;;34.20;69.80;;;;;;1835792;77;21160;-85
2022/06/30 08:07:33;;;;;;;5.78;3.77;;;34.30;70.00;;;;;;1847306;77;21116;-84
2022/06/30 08:10:06;;;;;;;3.25;2.02;;;34.40;69.70;;;;;;1854062;77;21158;-85
2022/06/30 08:12:37;;;;;;;2.95;1.55;;;34.50;69.30;;;;;;1841875;77;21675;-85
2022/06/30 08:15:08;;;;;;;2.90;1.80;;;34.60;68.90;;;;;;1840385;77;21077;-85
2022/06/30 08:17:39;;;;;;;2.72;1.40;;;34.60;67.80;;;;;;1837419;77;21631;-85
2022/06/30 08:20:10;;;;;;;2.98;1.67;;;34.50;67.20;;;;;;1853828;77;21552;-86
2022/06/30 08:22:42;;;;;;;4.00;1.60;;;34.50;67.60;;;;;;1841310;77;21128;-84
2022/06/30 08:25:13;;;;;;;4.37;1.82;;;34.50;67.70;;;;;;1850107;77;21163;-84
2022/06/30 08:27:46;;;;;;;2.75;1.20;;;34.50;67.70;;;;;;1868935;77;22057;-87
2022/06/30 08:30:17;;;;;;;2.72;1.22;;;34.50;66.60;;;;;;1860874;77;21112;-87
2022/06/30 08:32:48;;;;;;;3.90;1.60;;;34.60;66.50;;;;;;1855591;77;21247;-82
2022/06/30 08:35:21;;;;;;;4.00;2.17;;;34.50;66.50;;;;;;1852899;77;21120;-82
2022/06/30 08:37:55;;;;;;;2.42;1.60;;;34.50;66.20;;;;;;1865491;77;21196;-84
2022/06/30 08:43:06;;;;;;;4.35;1.40;;;34.40;66.60;;;;;;1856992;77;21234;-84
2022/06/30 08:45:57;;;;;;;2.67;1.50;;;34.40;67.40;;;;;;1867436;76;21198;-81
2022/06/30 08:48:29;;;;;;;3.37;1.40;;;34.30;67.20;;;;;;1856736;76;21104;-82
2022/06/30 08:51:02;;;;;;;3.72;1.30;;;34.30;67.40;;;;;;1874715;75;21233;-83
2022/06/30 08:53:44;;;;;;;6.85;1.55;;;34.30;67.50;;;;;;1900009;75;21406;-83
2022/06/30 08:56:15;;;;;;;3.08;1.20;;;34.30;67.20;;;;;;1861762;76;21139;-81
2022/06/30 08:58:48;;;;;;;4.00;1.52;;;34.40;67.00;;;;;;1866953;76;21147;-83
2022/06/30 09:01:24;;;;;;;4.62;1.45;;;34.40;67.70;;;;;;1870031;75;21127;-83
2022/06/30 09:03:53;;;;;;;3.85;1.37;;;34.30;67.60;;;;;;1876737;76;21194;-82
2022/06/30 09:06:26;;;;;;;4.15;1.82;;;34.30;67.20;;;;;;1859543;76;21103;-83
2022/06/30 09:08:58;;;;;;;7.58;1.75;;;34.30;68.10;;;;;;1801538;78;21146;-84
2022/06/30 09:11:32;;;;;;;4.35;1.67;;;34.40;70.10;;;;;;1875677;76;21572;-83
2022/06/30 09:14:04;;;;;;;4.17;2.05;;;34.30;70.50;;;;;;1873061;76;22051;-84
2022/06/30 09:16:36;;;;;;;3.45;1.60;;;34.20;71.00;;;;;;1825266;78;21096;-84
2022/06/30 09:19:07;;;;;;;5.58;2.10;;;34.10;72.80;;;;;;1858054;76;21151;-85
2022/06/30 09:21:38;;;;;;;5.30;1.80;;;34.10;71.90;;;;;;1872548;76;21144;-85
2022/06/30 09:24:11;;;;;;;3.02;1.52;;;34.10;71.30;;;;;;1862583;77;21245;-85
2022/06/30 09:26:42;;;;;;;4.80;1.50;;;34.00;70.80;;;;;;1860980;77;21175;-84
2022/06/30 09:29:13;;;;;;;6.75;2.00;;;33.90;71.50;;;;;;1841561;77;21143;-83
2022/06/30 09:31:48;;;;;;;4.67;1.85;;;33.90;72.00;;;;;;1868236;76;21119;-85
2022/06/30 09:34:22;;;;;;;4.53;1.80;;;33.90;72.20;;;;;;1877445;76;21144;-84
2022/06/30 09:36:54;;;;;;;6.20;1.70;;;33.90;72.20;;;;;;1865026;76;21058;-85
2022/06/30 09:39:27;;;;;;;5.65;1.92;;;33.90;72.50;;;;;;1876330;76;21670;-84
2022/06/30 09:41:59;;;;;;;5.20;1.60;;;33.90;72.70;;;;;;1878538;76;21183;-83
2022/06/30 09:44:34;;;;;;;3.22;1.67;;;33.90;72.10;;;;;;1878519;73;21103;-83
2022/06/30 09:47:12;;;;;;;4.90;1.77;;;33.90;71.70;;;;;;1883380;73;21118;-83
2022/06/30 09:49:44;;;;;;;3.90;2.08;;;33.90;72.00;;;;;;1881814;73;21139;-82
2022/06/30 09:52:17;;;;;;;3.33;1.72;;;34.00;71.80;;;;;;1883932;73;21090;-82
2022/06/30 09:54:52;;;;;;;5.92;1.87;;;34.10;72.80;;;;;;1883111;74;21123;-83
2022/06/30 09:57:26;;;;;;;3.10;1.45;;;34.10;71.70;;;;;;1876104;74;21190;-82
2022/06/30 09:59:59;;;;;;;4.87;1.65;;;34.10;71.30;;;;;;1873504;74;21131;-82
2022/06/30 10:02:32;;;;;;;4.65;1.90;;;34.10;70.90;;;;;;1878274;74;21176;-82
2022/06/30 10:05:07;;;;;;;5.20;1.80;;;34.10;70.70;;;;;;1881430;74;21135;-85
2022/06/30 10:07:39;;;;;;;3.98;2.08;;;34.10;71.00;;;;;;1874395;76;21104;-86
2022/06/30 10:10:12;;;;;;;4.95;1.90;;;34.10;71.20;;;;;;1874202;76;21179;-83
2022/06/30 10:12:45;;;;;;;4.28;1.77;;;34.00;71.30;;;;;;1875488;76;21623;-84
2022/06/30 10:15:17;;;;;;;4.75;1.62;;;34.00;71.30;;;;;;1837170;77;21957;-83
2022/06/30 10:17:51;;;;;;;5.97;2.30;;;34.10;71.40;;;;;;1877268;76;21148;-83
2022/06/30 10:20:23;;;;;;;7.72;1.90;;;34.00;71.70;;;;;;1873064;76;21119;-81
2022/06/30 10:22:55;;;;;;;4.97;1.90;;;34.00;71.90;;;;;;1869851;76;21271;-83
2022/06/30 10:25:28;;;;;;;3.87;1.70;;;34.00;71.70;;;;;;1858130;75;21049;-84
2022/06/30 10:28:00;;;;;;;4.40;2.10;;;33.90;71.80;;;;;;1876730;75;21161;-83
2022/06/30 10:30:34;;;;;;;4.00;2.12;;;33.90;71.90;;;;;;1879370;75;21166;-82
2022/06/30 10:33:10;;;;;;;4.92;2.10;;;33.90;71.80;;;;;;1880243;75;21127;-82
2022/06/30 10:35:43;;;;;;;8.00;2.37;;;33.90;72.20;;;;;;1874477;75;21730;-82
2022/06/30 10:38:20;;;;;;;6.22;2.20;;;33.80;71.90;;;;;;1879593;75;21110;-81
2022/06/30 10:40:53;;;;;;;5.55;2.00;;;33.80;72.10;;;;;;1869343;75;21151;-82
2022/06/30 10:43:25;;;;;;;7.30;2.77;;;33.70;72.10;;;;;;1864954;75;21250;-82
2022/06/30 10:46:00;;;;;;;7.50;3.65;;;33.70;72.30;;;;;;1868938;75;21162;-83
2022/06/30 10:48:35;;;;;;;7.05;3.30;;;33.70;73.60;;;;;;1873177;75;21163;-84
2022/06/30 10:51:12;;;;;;;7.45;2.45;;;33.60;76.20;;;;;;1861950;75;21219;-82
2022/06/30 10:53:48;;;;;;;7.12;2.83;;;33.40;78.40;;;;;;1830701;77;21741;-82
2022/06/30 10:56:21;;;;;;;5.72;3.20;;;33.20;79.50;;;;;;1824703;77;21513;-82
2022/06/30 10:58:54;;;;;;;4.60;2.75;;;32.90;80.50;;;;;;1855778;77;21137;-82
2022/06/30 11:01:26;;;;;;;7.25;3.20;;;32.70;80.80;;;;;;1851692;76;21240;-84
2022/06/30 11:03:58;;;;;;;12.53;3.87;;;32.50;81.30;;;;;;1836006;77;21250;-83
2022/06/30 11:06:32;;;;;;;6.08;3.85;;;32.40;81.10;;;;;;1852365;77;21622;-82
2022/06/30 11:09:03;;;;;;;8.45;4.33;;;32.30;80.80;;;;;;1847284;77;21685;-83
2022/06/30 11:11:38;;;;;;;6.53;3.58;;;32.20;81.50;;;;;;1852887;76;21167;-83
2022/06/30 11:14:15;;;;;;;9.15;3.40;;;32.10;82.00;;;;;;1850149;77;21147;-83
2022/06/30 11:16:48;;;;;;;7.92;3.60;;;32.00;82.10;;;;;;1859712;76;21242;-84
2022/06/30 11:19:21;;;;;;;4.45;2.58;;;32.00;82.60;;;;;;1857233;76;21057;-83
2022/06/30 11:21:58;;;;;;;7.35;2.83;;;31.90;82.40;;;;;;1855612;77;21219;-83
2022/06/30 11:24:28;;;;;;;5.58;2.67;;;31.90;82.50;;;;;;1855486;77;21160;-82
2022/06/30 11:29:31;;;;;;;8.50;3.35;;;31.80;82.80;;;;;;1853921;77;21199;-84
2022/06/30 11:32:05;;;;;;;7.72;3.27;;;31.70;82.80;;;;;;1854822;77;21126;-83
2022/06/30 11:34:41;;;;;;;6.40;3.40;;;31.80;83.10;;;;;;1841910;77;21213;-84
2022/06/30 11:37:13;;;;;;;10.45;3.40;;;31.70;82.60;;;;;;1849220;77;21157;-81
2022/06/30 11:39:48;;;;;;;9.08;4.10;;;31.70;82.90;;;;;;1852855;76;21226;-83
2022/06/30 11:42:20;;;;;;;15.78;2.83;;;31.70;82.60;;;;;;1823542;77;21798;-83
2022/06/30 11:44:51;;;;;;;25.80;3.33;;;31.60;81.30;;;;;;1863153;77;21060;-81
2022/06/30 11:47:24;;;;;;;17.67;3.12;;;31.30;81.10;;;;;;1854403;77;21608;-80
2022/06/30 11:49:58;;;;;;;10.88;3.20;;;30.50;89.00;;;;;;1850412;77;21607;-81
2022/06/30 11:52:32;;;;;;;7.33;2.85;;;29.60;91.40;;;;;;1884832;75;21185;-81
2022/06/30 11:55:05;;;;;;;9.20;2.47;;;28.90;92.80;;;;;;1870930;76;21580;-80
2022/06/30 11:57:41;;;;;;;10.45;2.05;;;28.40;93.30;;;;;;1842429;76;21110;-81
2022/06/30 12:00:15;;;;;;;5.35;1.80;;;28.10;94.20;;;;;;1806153;78;21085;-81
2022/06/30 12:02:47;;;;;;;6.00;1.65;;;27.80;94.00;;;;;;1804733;78;21158;-81
2022/06/30 12:05:21;;;;;;;11.18;3.47;;;27.50;94.50;;;;;;1876608;75;21082;-81
2022/06/30 12:07:55;;;;;;;5.40;1.30;;;27.30;95.40;;;;;;1872441;76;21123;-80
2022/06/30 12:10:27;;;;;;;5.60;1.82;;;27.30;96.10;;;;;;1885023;76;21155;-82
2022/06/30 12:13:03;;;;;;;7.75;2.25;;;27.20;95.70;;;;;;1852661;75;21139;-81
2022/06/30 12:15:36;;;;;;;5.67;1.30;;;27.10;94.80;;;;;;1866143;75;21133;-82
2022/06/30 12:18:08;;;;;;;5.58;1.85;;;27.00;94.80;;;;;;1873535;75;22174;-81
2022/06/30 12:20:41;;;;;;;8.20;2.30;;;26.90;95.50;;;;;;1869647;76;21173;-82
2022/06/30 12:23:13;;;;;;;6.80;1.80;;;26.80;96.20;;;;;;1869361;76;21160;-82
2022/06/30 12:25:44;;;;;;;5.80;1.70;;;26.90;95.90;;;;;;1885193;76;21240;-80
2022/06/30 12:28:18;;;;;;;3.52;1.12;;;26.90;96.60;;;;;;1881659;75;21142;-81
2022/06/30 12:30:51;;;;;;;6.15;1.70;;;27.00;95.90;;;;;;1866378;76;21699;-80
2022/06/30 12:33:26;;;;;;;5.30;1.42;;;27.00;95.50;;;;;;1879955;75;21142;-81
2022/06/30 12:36:01;;;;;;;4.67;1.30;;;27.10;95.50;;;;;;1869541;75;21592;-82
2022/06/30 12:38:33;;;;;;;4.50;1.40;;;27.10;95.80;;;;;;1896415;75;21182;-81
2022/06/30 12:41:07;;;;;;;5.62;1.50;;;27.10;96.10;;;;;;1896806;75;21139;-81
2022/06/30 12:43:41;;;;;;;3.95;1.60;;;27.20;96.00;;;;;;1884513;75;21200;-80
2022/06/30 12:46:13;;;;;;;4.75;1.75;;;27.20;95.90;;;;;;1884148;75;21267;-81
2022/06/30 12:48:51;;;;;;;3.60;1.55;;;27.20;95.90;;;;;;1882895;75;21177;-79
2022/06/30 12:51:25;;;;;;;5.00;1.20;;;27.20;96.00;;;;;;1865702;76;22038;-81
2022/06/30 12:54:00;;;;;;;6.03;1.50;;;27.30;96.20;;;;;;1855173;76;21072;-80
2022/06/30 12:56:32;;;;;;;5.35;1.40;;;27.40;96.90;;;;;;1857986;77;21085;-81
2022/06/30 12:59:08;;;;;;;3.15;1.47;;;27.50;97.00;;;;;;1852503;77;21209;-80
2022/06/30 13:01:42;;;;;;;3.08;1.15;;;27.60;96.80;;;;;;1855730;77;21124;-81
2022/06/30 13:04:16;;;;;;;3.87;1.07;;;27.70;96.70;;;;;;1840088;77;21152;-82
2022/06/30 13:06:54;;;;;;;4.87;1.17;;;27.80;96.60;;;;;;1852412;77;21101;-82
2022/06/30 13:09:25;;;;;;;;;;;27.80;96.10;;;;;;1858919;77;21124;-82
2022/06/30 13:11:58;;;;;;;4.15;1.30;;;27.90;95.70;;;;;;1857358;76;20173;-79
2022/06/30 13:14:31;;;;;;;2.20;0.85;;;28.00;96.10;;;;;;1853001;77;21077;-81
2022/06/30 13:17:04;;;;;;;4.28;1.22;;;28.00;95.70;;;;;;1865240;77;21134;-81
2022/06/30 13:19:37;;;;;;;4.62;2.00;;;28.10;95.60;;;;;;1866687;77;21123;-80
2022/06/30 13:22:10;;;;;;;3.98;1.47;;;28.20;95.30;;;;;;1838931;77;21135;-80
2022/06/30 13:24:41;;;;;;;4.40;1.52;;;28.10;94.90;;;;;;1846395;77;21552;-80
2022/06/30 13:27:12;;;;;;;6.30;1.50;;;28.20;95.20;;;;;;1854711;77;21157;-81
2022/06/30 13:29:45;;;;;;;4.22;1.60;;;28.20;96.20;;;;;;1853566;77;21634;-80
2022/06/30 13:32:16;;;;;;;6.17;1.80;;;28.20;96.80;;;;;;1854108;77;21062;-80